Time;durP1;ratioP1;P1;durP2;ratioP2;P2;SDS_P1;SDS_P2;PMS_P1;PMS_P2;Temp;Humidity;BMP_temperature;BMP_pressure;BME280_temperature;BME280_humidity;BME280_pressure;Samples;Min_cycle;Max_cycle;Signal;HPM_P1;HPM_P2
2023/04/20 00:01:31;;;;;;;6.10;3.40;;;;;;;11.02;31.96;102155.47;5083229;28;20666;-66
2023/04/20 00:03:57;;;;;;;4.13;3.50;;;;;;;11.01;32.00;102153.78;5071299;28;20115;-66
2023/04/20 00:06:24;;;;;;;5.68;3.90;;;;;;;11.04;31.99;102156.06;5092769;28;20418;-66
2023/04/20 00:08:49;;;;;;;7.50;3.95;;;;;;;11.01;32.04;102154.63;5093235;28;20035;-66
2023/04/20 00:11:14;;;;;;;9.70;4.13;;;;;;;11.02;32.44;102150.75;5093128;28;20020;-66
2023/04/20 00:13:40;;;;;;;6.85;3.83;;;;;;;11.02;32.14;102147.13;5089686;28;20056;-66
2023/04/20 00:16:05;;;;;;;6.88;4.07;;;;;;;11.02;31.45;102139.66;5092547;28;20063;-67
2023/04/20 00:18:31;;;;;;;6.57;4.32;;;;;;;11.01;31.94;102142.66;5090322;28;20036;-66
2023/04/20 00:20:56;;;;;;;5.30;3.92;;;;;;;10.90;32.21;102141.44;5088852;28;20020;-66
2023/04/20 00:23:21;;;;;;;9.02;3.55;;;;;;;10.86;32.36;102137.41;5081293;28;20078;-66
2023/04/20 00:25:48;;;;;;;5.85;3.65;;;;;;;10.82;32.55;102127.81;5072391;28;20491;-66
2023/04/20 00:28:13;;;;;;;8.18;4.10;;;;;;;10.83;32.22;102123.97;5072286;28;20071;-66
2023/04/20 00:30:39;;;;;;;8.82;3.67;;;;;;;10.84;32.28;102122.88;5072449;28;20063;-67
2023/04/20 00:33:04;;;;;;;6.18;3.42;;;;;;;10.84;32.67;102122.88;5072538;28;20220;-66
2023/04/20 00:35:29;;;;;;;6.63;3.60;;;;;;;10.76;32.62;102124.00;5078479;28;20040;-66
2023/04/20 00:37:55;;;;;;;6.35;3.80;;;;;;;10.79;32.65;102108.81;5072647;28;20025;-66
2023/04/20 00:40:20;;;;;;;7.70;3.97;;;;;;;10.77;32.61;102102.66;5072949;28;20574;-66
2023/04/20 00:42:45;;;;;;;5.63;3.67;;;;;;;10.76;32.59;102106.50;5073194;28;20032;-66
2023/04/20 00:45:10;;;;;;;6.05;3.95;;;;;;;10.74;32.09;102100.31;5089296;28;20036;-66
2023/04/20 00:47:36;;;;;;;4.22;3.33;;;;;;;10.73;32.33;102093.06;5082204;28;20376;-67
2023/04/20 00:50:01;;;;;;;6.22;3.60;;;;;;;10.68;32.40;102092.88;5070457;28;20142;-67
2023/04/20 00:52:27;;;;;;;5.20;3.58;;;;;;;10.69;32.47;102086.22;5081486;28;20028;-66
2023/04/20 00:54:52;;;;;;;5.85;3.53;;;;;;;10.62;32.38;102077.13;5091877;28;20032;-66
2023/04/20 00:57:22;;;;;;;4.75;4.07;;;;;;;10.63;32.43;102076.88;5091430;28;20038;-66
2023/04/20 00:59:49;;;;;;;5.07;3.40;;;;;;;10.55;32.72;102074.38;5091960;28;20051;-67
2023/04/20 01:02:14;;;;;;;8.50;3.42;;;;;;;10.57;32.93;102063.88;5091109;28;20032;-66
2023/04/20 01:04:40;;;;;;;4.72;3.50;;;;;;;10.54;32.83;102065.22;5078786;28;20036;-66
2023/04/20 01:07:05;;;;;;;4.97;3.30;;;;;;;10.56;32.96;102057.47;5085466;28;20085;-66
2023/04/20 01:09:30;;;;;;;5.00;3.55;;;;;;;10.59;32.91;102055.34;5078106;28;20028;-65
2023/04/20 01:11:56;;;;;;;7.93;3.70;;;;;;;10.54;32.75;102058.81;5088599;28;20036;-67
2023/04/20 01:14:21;;;;;;;4.97;3.50;;;;;;;10.47;33.06;102053.28;5092228;28;20522;-66
2023/04/20 01:16:46;;;;;;;4.88;3.35;;;;;;;10.45;33.23;102051.78;5088525;28;20032;-66
2023/04/20 01:19:12;;;;;;;6.40;3.58;;;;;;;10.41;33.71;102037.50;5085003;28;20027;-65
2023/04/20 01:21:37;;;;;;;3.90;3.42;;;;;;;10.35;33.47;102038.41;5083406;28;20036;-65
2023/04/20 01:24:03;;;;;;;4.53;3.70;;;;;;;10.41;33.82;102037.50;5070775;28;20177;-66
2023/04/20 01:26:29;;;;;;;5.60;3.17;;;;;;;10.38;33.78;102034.34;5072675;28;20568;-66
2023/04/20 01:28:54;;;;;;;7.82;3.63;;;;;;;10.37;33.64;102030.69;5074993;28;20533;-66
2023/04/20 01:31:20;;;;;;;4.50;3.38;;;;;;;10.37;33.87;102036.25;5072528;28;20060;-67
2023/04/20 01:33:45;;;;;;;7.90;3.33;;;;;;;10.36;33.79;102022.63;5076774;28;20097;-66
2023/04/20 01:36:11;;;;;;;8.02;3.80;;;;;;;10.32;33.97;102023.06;5091278;28;20043;-66
2023/04/20 01:38:37;;;;;;;4.50;3.10;;;;;;;10.24;34.29;102014.13;5082784;28;20103;-65
2023/04/20 01:41:05;;;;;;;5.57;3.50;;;;;;;10.23;34.34;102023.53;5070772;28;20036;-66
2023/04/20 01:43:31;;;;;;;5.18;3.38;;;;;;;10.23;34.22;102017.97;5071520;28;20035;-66
2023/04/20 01:45:58;;;;;;;5.00;3.17;;;;;;;10.23;34.52;102007.72;5071704;28;20032;-65
2023/04/20 01:48:23;;;;;;;5.28;3.45;;;;;;;10.22;34.46;102000.47;5085929;28;20024;-66
2023/04/20 01:50:53;;;;;;;4.15;3.33;;;;;;;10.18;34.69;101999.22;5077046;28;20565;-66
2023/04/20 01:53:18;;;;;;;4.50;3.45;;;;;;;10.18;34.94;101998.34;5087115;28;20403;-67
2023/04/20 01:55:43;;;;;;;4.45;3.20;;;;;;;10.16;34.99;101998.59;5088446;28;20032;-66
2023/04/20 01:58:09;;;;;;;5.18;3.42;;;;;;;10.10;34.93;101991.16;5091126;28;20371;-66
2023/04/20 02:00:34;;;;;;;5.00;3.30;;;;;;;10.04;34.92;101990.13;5090252;28;20038;-66
2023/04/20 02:02:59;;;;;;;5.80;3.47;;;;;;;9.99;35.30;101984.38;5081568;28;20586;-66
2023/04/20 02:05:25;;;;;;;4.60;3.55;;;;;;;9.93;35.92;101979.72;5086559;28;20089;-66
2023/04/20 02:07:50;;;;;;;6.78;3.90;;;;;;;9.91;35.74;101972.72;5090632;28;20036;-67
2023/04/20 02:10:16;;;;;;;5.68;3.55;;;;;;;9.93;35.66;101970.53;5080867;28;20721;-66
2023/04/20 02:12:41;;;;;;;5.10;3.40;;;;;;;9.94;35.33;101975.88;5070388;28;20820;-66
2023/04/20 02:15:08;;;;;;;4.93;3.38;;;;;;;9.91;35.29;101965.22;5058053;28;20049;-66
2023/04/20 02:17:35;;;;;;;4.97;3.38;;;;;;;9.95;35.08;101962.88;5062694;28;20033;-66
2023/04/20 02:20:00;;;;;;;6.05;3.30;;;;;;;9.88;35.54;101962.91;5065114;28;20039;-66
2023/04/20 02:22:25;;;;;;;5.40;3.55;;;;;;;9.84;35.70;101961.63;5048565;28;20029;-66
2023/04/20 02:24:51;;;;;;;7.30;3.70;;;;;;;9.83;36.17;101954.41;5050817;28;20131;-66
2023/04/20 02:27:16;;;;;;;8.98;4.38;;;;;;;9.83;36.11;101952.47;5049493;28;20465;-66
2023/04/20 02:29:41;;;;;;;5.43;3.70;;;;;;;9.88;35.63;101949.03;5050694;28;20044;-66
2023/04/20 02:32:06;;;;;;;6.82;3.50;;;;;;;9.86;35.69;101940.06;5049612;28;20039;-65
2023/04/20 02:34:32;;;;;;;5.78;3.45;;;;;;;9.88;36.25;101945.41;5060580;28;20029;-66
2023/04/20 02:36:57;;;;;;;5.28;3.35;;;;;;;9.85;36.22;101949.47;5066049;28;20028;-66
2023/04/20 02:39:22;;;;;;;6.38;3.80;;;;;;;9.83;36.56;101946.94;5070841;28;20027;-66
2023/04/20 02:41:48;;;;;;;6.40;3.53;;;;;;;9.76;36.64;101950.81;5069458;28;20021;-66
2023/04/20 02:44:13;;;;;;;5.07;3.58;;;;;;;9.77;36.59;101941.41;5055201;28;20529;-66
2023/04/20 02:46:38;;;;;;;7.50;3.45;;;;;;;9.78;36.93;101932.84;5050544;28;20075;-67
2023/04/20 02:49:03;;;;;;;4.72;3.38;;;;;;;9.62;37.24;101938.91;5055898;28;20502;-66
2023/04/20 02:51:29;;;;;;;4.50;3.83;;;;;;;9.65;37.23;101930.16;5050470;28;20086;-66
2023/04/20 02:53:54;;;;;;;5.72;3.60;;;;;;;9.66;37.22;101928.22;5050451;28;20029;-65
2023/04/20 02:56:20;;;;;;;5.38;3.95;;;;;;;9.66;37.75;101931.00;5049356;28;20017;-65
2023/04/20 02:58:47;;;;;;;7.70;3.92;;;;;;;9.62;37.80;101932.53;5050369;28;20480;-66
2023/04/20 03:01:12;;;;;;;4.85;3.50;;;;;;;9.60;38.42;101929.97;5051099;28;20025;-67
2023/04/20 03:03:38;;;;;;;6.22;3.28;;;;;;;9.60;38.48;101932.75;5051101;28;20037;-66
2023/04/20 03:06:03;;;;;;;4.82;3.95;;;;;;;9.59;38.26;101915.28;5055878;28;20035;-67
2023/04/20 03:08:28;;;;;;;6.53;3.85;;;;;;;9.58;38.76;101927.41;5053399;28;20051;-67
2023/04/20 03:10:54;;;;;;;8.10;4.03;;;;;;;9.59;38.42;101922.75;5064173;28;20033;-67
2023/04/20 03:13:19;;;;;;;4.88;3.97;;;;;;;9.61;39.09;101914.19;5061001;28;20044;-67
2023/04/20 03:15:44;;;;;;;6.88;4.10;;;;;;;9.57;39.48;101909.09;5048694;28;20128;-67
2023/04/20 03:18:10;;;;;;;4.47;3.80;;;;;;;9.58;39.42;101910.78;5046616;28;20029;-66
2023/04/20 03:20:35;;;;;;;5.72;3.85;;;;;;;9.55;39.26;101908.47;5049973;28;20469;-67
2023/04/20 03:23:00;;;;;;;9.40;3.75;;;;;;;9.50;39.55;101894.41;5066066;28;20876;-66
2023/04/20 03:25:26;;;;;;;5.55;4.07;;;;;;;9.44;40.39;101906.41;5073373;28;20032;-66
2023/04/20 03:27:51;;;;;;;7.68;4.45;;;;;;;9.43;40.63;101895.50;5074002;28;20021;-67
2023/04/20 03:30:16;;;;;;;8.43;4.30;;;;;;;9.45;40.47;101894.22;5070861;28;20032;-67
2023/04/20 03:32:41;;;;;;;7.95;4.22;;;;;;;9.43;40.66;101901.94;5054923;28;20033;-67
2023/04/20 03:35:07;;;;;;;7.28;4.43;;;;;;;9.47;40.52;101905.06;5058348;28;20082;-67
2023/04/20 03:37:35;;;;;;;6.35;4.50;;;;;;;9.42;40.83;101904.91;5064207;28;20079;-67
2023/04/20 03:40:00;;;;;;;9.77;4.35;;;;;;;9.47;40.89;101894.88;5073718;28;20103;-67
2023/04/20 03:42:25;;;;;;;7.40;3.90;;;;;;;9.41;41.49;101890.19;5070425;28;20116;-67
2023/04/20 03:44:50;;;;;;;6.32;4.13;;;;;;;9.47;41.16;101880.13;5054810;28;20090;-67
2023/04/20 03:47:19;;;;;;;7.20;4.00;;;;;;;9.42;41.79;101885.50;5068036;28;20036;-67
2023/04/20 03:49:44;;;;;;;6.60;3.80;;;;;;;9.46;41.69;101876.53;5053329;28;20029;-67
2023/04/20 03:52:09;;;;;;;8.45;4.10;;;;;;;9.45;42.17;101876.75;5052526;28;20021;-67
2023/04/20 03:54:35;;;;;;;5.55;4.40;;;;;;;9.43;42.38;101889.97;5053451;28;20525;-67
2023/04/20 03:57:01;;;;;;;8.07;4.60;;;;;;;9.44;42.36;101878.69;5052674;28;20032;-67
2023/04/20 03:59:26;;;;;;;8.02;4.50;;;;;;;9.39;43.05;101877.63;5052264;28;20032;-67
2023/04/20 04:01:51;;;;;;;4.88;3.97;;;;;;;9.44;42.58;101875.91;5053316;28;20025;-67
2023/04/20 04:04:17;;;;;;;8.85;4.50;;;;;;;9.45;43.06;101879.53;5058931;28;20479;-67
2023/04/20 04:06:42;;;;;;;5.88;4.65;;;;;;;9.47;43.07;101869.06;5054735;28;20037;-66
2023/04/20 04:09:08;;;;;;;5.95;4.13;;;;;;;9.47;43.43;101869.06;5053258;28;20683;-66
2023/04/20 04:11:33;;;;;;;5.40;4.68;;;;;;;9.47;43.60;101864.38;5053263;28;20048;-65
2023/04/20 04:13:58;;;;;;;6.20;3.80;;;;;;;9.50;43.12;101865.84;5052902;28;20033;-66
2023/04/20 04:16:24;;;;;;;6.80;4.70;;;;;;;9.48;43.64;101856.91;5086405;28;20531;-65
2023/04/20 04:18:49;;;;;;;6.57;4.57;;;;;;;9.46;43.64;101868.22;5072024;28;20032;-66
2023/04/20 04:21:15;;;;;;;7.38;4.15;;;;;;;9.49;43.55;101859.47;5082788;28;20047;-66
2023/04/20 04:23:41;;;;;;;7.53;4.80;;;;;;;9.46;44.30;101853.50;5092834;28;20463;-67
2023/04/20 04:26:07;;;;;;;5.93;4.45;;;;;;;9.47;44.20;101853.31;5082097;28;20506;-66
2023/04/20 04:28:32;;;;;;;4.90;4.40;;;;;;;9.42;44.83;101852.25;5073816;28;20037;-66
2023/04/20 04:31:00;;;;;;;7.53;4.72;;;;;;;9.51;44.26;101846.25;5078339;28;20024;-67
2023/04/20 04:33:25;;;;;;;4.82;3.90;;;;;;;9.53;44.44;101834.94;5090962;28;20474;-67
2023/04/20 04:35:52;;;;;;;7.47;4.35;;;;;;;9.54;44.77;101828.31;5089436;28;20034;-67
2023/04/20 04:38:17;;;;;;;8.68;4.38;;;;;;;9.57;44.88;101825.94;5089852;28;20028;-67
2023/04/20 04:40:45;;;;;;;7.10;5.30;;;;;;;9.58;44.50;101822.09;5089600;28;20035;-67
2023/04/20 04:43:11;;;;;;;5.57;4.35;;;;;;;9.58;44.98;101815.69;5081038;28;20126;-67
2023/04/20 04:45:38;;;;;;;7.45;4.75;;;;;;;9.52;45.14;101814.69;5086691;28;20200;-65
2023/04/20 04:48:04;;;;;;;5.97;4.40;;;;;;;9.53;45.09;101812.75;5071157;28;20032;-65
2023/04/20 04:50:30;;;;;;;5.18;4.30;;;;;;;9.58;45.51;101805.44;5071524;28;20040;-66
2023/04/20 04:52:55;;;;;;;7.05;4.15;;;;;;;9.52;45.74;101816.59;5077216;28;20047;-66
2023/04/20 04:55:21;;;;;;;6.40;4.63;;;;;;;9.51;46.05;101815.75;5071960;28;20035;-66
2023/04/20 04:57:46;;;;;;;6.13;4.50;;;;;;;9.61;45.31;101814.41;5089003;28;20426;-67
2023/04/20 05:00:13;;;;;;;8.07;4.75;;;;;;;9.63;45.42;101803.94;5089125;28;20039;-67
2023/04/20 05:02:38;;;;;;;5.65;4.60;;;;;;;9.62;45.99;101805.00;5076568;28;20032;-67
2023/04/20 05:05:04;;;;;;;8.60;5.03;;;;;;;9.65;45.62;101804.56;5071372;28;20503;-67
2023/04/20 05:07:29;;;;;;;10.85;4.90;;;;;;;9.56;46.29;101804.84;5072616;28;20166;-67
2023/04/20 05:09:54;;;;;;;6.72;4.60;;;;;;;9.61;46.30;101811.63;5071424;28;20044;-67
2023/04/20 05:12:20;;;;;;;7.43;4.90;;;;;;;9.64;46.20;101809.28;5072616;28;20119;-67
2023/04/20 05:14:45;;;;;;;5.18;4.60;;;;;;;9.66;45.98;101800.72;5086366;28;20052;-67
2023/04/20 05:17:10;;;;;;;5.43;4.60;;;;;;;9.67;46.16;101802.41;5082660;28;20032;-67
2023/04/20 05:19:36;;;;;;;8.10;5.10;;;;;;;9.66;46.11;101800.72;5086291;28;20357;-67
2023/04/20 05:22:01;;;;;;;7.78;4.65;;;;;;;9.66;47.04;101806.25;5071486;28;20561;-67
2023/04/20 05:24:26;;;;;;;8.27;4.97;;;;;;;9.66;47.42;101796.03;5085635;28;20032;-67
2023/04/20 05:26:52;;;;;;;9.27;5.20;;;;;;;9.65;47.50;101812.88;5089906;28;20545;-67
2023/04/20 05:29:17;;;;;;;6.85;4.95;;;;;;;9.68;47.38;101804.97;5091023;28;20051;-67
2023/04/20 05:31:43;;;;;;;5.57;4.60;;;;;;;9.69;47.23;101801.13;5078216;28;20047;-65
2023/04/20 05:34:09;;;;;;;5.40;4.82;;;;;;;9.69;47.45;101801.13;5083421;28;20035;-65
2023/04/20 05:36:34;;;;;;;5.95;4.90;;;;;;;9.71;47.39;101806.47;5087446;28;20040;-65
2023/04/20 05:38:59;;;;;;;9.45;5.05;;;;;;;9.73;47.22;101804.31;5085609;28;20099;-66
2023/04/20 05:41:27;;;;;;;6.85;5.10;;;;;;;9.73;47.38;101799.59;5090156;28;20459;-65
2023/04/20 05:43:53;;;;;;;5.63;4.72;;;;;;;9.65;47.13;101810.97;5081657;28;20464;-66
2023/04/20 05:46:20;;;;;;;5.25;4.55;;;;;;;9.69;47.10;101797.50;5075537;28;20107;-66
2023/04/20 05:48:45;;;;;;;5.75;4.63;;;;;;;9.67;47.10;101792.19;5077096;28;20027;-65
2023/04/20 05:51:11;;;;;;;6.93;4.70;;;;;;;9.62;47.14;101789.22;5080374;28;20451;-66
2023/04/20 05:53:36;;;;;;;5.93;4.53;;;;;;;9.64;47.21;101787.09;5085239;28;20019;-66
2023/04/20 05:56:02;;;;;;;6.97;5.07;;;;;;;9.67;47.20;101785.78;5072503;28;20039;-66
2023/04/20 05:58:27;;;;;;;6.43;4.78;;;;;;;9.69;47.54;101778.09;5066580;28;20043;-65
2023/04/20 06:00:53;;;;;;;7.72;5.03;;;;;;;9.73;47.19;101790.44;5076207;28;20439;-66
2023/04/20 06:03:18;;;;;;;6.93;4.90;;;;;;;9.73;47.74;101790.44;5083377;28;20028;-64
2023/04/20 06:05:44;;;;;;;5.85;4.95;;;;;;;9.72;47.26;101788.75;5074813;28;20038;-62
2023/04/20 06:08:09;;;;;;;9.98;5.32;;;;;;;9.70;47.84;101790.88;5073452;28;20510;-63
2023/04/20 06:10:34;;;;;;;7.55;5.25;;;;;;;9.69;47.62;101786.41;5088008;28;20105;-64
2023/04/20 06:13:00;;;;;;;11.57;5.50;;;;;;;9.66;48.09;101784.09;5087380;28;20036;-63
2023/04/20 06:15:25;;;;;;;9.50;5.35;;;;;;;9.63;47.89;101779.00;5081828;28;20044;-63
2023/04/20 06:17:50;;;;;;;8.85;5.65;;;;;;;9.64;47.87;101792.63;5074358;28;20094;-64
2023/04/20 06:20:16;;;;;;;7.35;5.80;;;;;;;9.65;48.20;101776.84;5079553;28;20048;-64
2023/04/20 06:22:45;;;;;;;7.88;6.20;;;;;;;9.68;48.33;101781.97;5065441;28;20026;-64
2023/04/20 06:25:11;;;;;;;8.88;5.95;;;;;;;9.62;48.65;101783.69;5079305;28;20035;-65
2023/04/20 06:27:36;;;;;;;7.00;5.20;;;;;;;9.68;48.34;101781.97;5074782;28;20024;-64
2023/04/20 06:30:03;;;;;;;8.82;5.47;;;;;;;9.68;48.32;101779.19;5083043;28;20060;-64
2023/04/20 06:32:28;;;;;;;7.82;5.40;;;;;;;9.63;48.63;101767.91;5083222;28;20785;-64
2023/04/20 06:34:53;;;;;;;8.70;5.43;;;;;;;9.64;48.79;101776.00;5084832;28;20050;-64
2023/04/20 06:37:19;;;;;;;8.20;5.43;;;;;;;9.64;48.88;101766.84;5087343;28;20061;-62
2023/04/20 06:39:44;;;;;;;6.97;5.80;;;;;;;9.65;48.98;101768.53;5086417;28;20106;-63
2023/04/20 06:42:09;;;;;;;10.05;5.60;;;;;;;9.58;48.94;101772.19;5082343;28;20111;-61
2023/04/20 06:44:35;;;;;;;7.32;5.88;;;;;;;9.59;49.20;101773.06;5067767;28;20048;-64
2023/04/20 06:47:00;;;;;;;9.63;6.00;;;;;;;9.55;49.16;101758.81;5077198;28;20409;-64
2023/04/20 06:49:25;;;;;;;11.77;6.22;;;;;;;9.56;49.45;101760.50;5084022;28;20031;-64
2023/04/20 06:51:51;;;;;;;8.80;5.93;;;;;;;9.58;49.61;101766.66;5077862;28;20154;-64
2023/04/20 06:54:16;;;;;;;8.82;6.55;;;;;;;9.57;49.37;101759.41;5071984;28;20025;-63
2023/04/20 06:56:41;;;;;;;9.95;6.10;;;;;;;9.58;49.66;101766.66;5083123;28;20039;-62
2023/04/20 06:59:06;;;;;;;7.05;5.80;;;;;;;9.61;49.50;101765.38;5077974;28;20395;-64
2023/04/20 07:01:32;;;;;;;9.93;6.10;;;;;;;9.65;49.83;101751.91;5064526;28;20036;-61
2023/04/20 07:03:57;;;;;;;8.70;6.07;;;;;;;9.68;50.04;101757.00;5081454;28;20032;-61
2023/04/20 07:06:24;;;;;;;7.88;6.13;;;;;;;9.68;49.76;101760.63;5087553;28;20044;-61
2023/04/20 07:08:49;;;;;;;8.73;6.65;;;;;;;9.67;49.91;101761.72;5078166;28;20589;-61
2023/04/20 07:11:14;;;;;;;10.63;6.15;;;;;;;9.52;50.10;101764.78;5070532;28;20466;-61
2023/04/20 07:13:39;;;;;;;9.32;6.05;;;;;;;9.48;49.64;101755.22;5075702;28;20055;-63
2023/04/20 07:16:05;;;;;;;10.20;6.28;;;;;;;9.41;50.13;101765.50;5075631;28;20101;-63
2023/04/20 07:18:34;;;;;;;6.07;5.28;;;;;;;9.41;50.45;101756.34;5089724;28;20047;-63
2023/04/20 07:20:59;;;;;;;10.82;5.50;;;;;;;9.41;49.87;101767.44;5073411;28;20850;-64
2023/04/20 07:23:24;;;;;;;8.63;6.03;;;;;;;9.45;50.34;101771.44;5072018;28;20103;-64
2023/04/20 07:25:51;;;;;;;10.25;5.82;;;;;;;9.41;50.35;101773.81;5072590;28;20081;-64
2023/04/20 07:28:16;;;;;;;6.13;5.45;;;;;;;9.34;50.03;101767.47;5072608;28;20766;-64
2023/04/20 07:30:41;;;;;;;8.25;5.57;;;;;;;9.29;50.60;101776.44;5079700;28;20043;-64
2023/04/20 07:33:07;;;;;;;7.70;5.43;;;;;;;9.23;50.45;101782.00;5085033;28;20036;-64
2023/04/20 07:35:32;;;;;;;10.55;5.63;;;;;;;9.25;50.81;101766.03;5075723;28;20390;-63
2023/04/20 07:37:58;;;;;;;9.65;5.88;;;;;;;9.23;50.88;101768.16;5092759;28;20486;-64
2023/04/20 07:40:23;;;;;;;9.50;5.65;;;;;;;9.30;51.08;101768.97;5083244;28;22196;-63
2023/04/20 07:42:48;;;;;;;7.80;5.90;;;;;;;9.28;50.85;101772.00;5072328;28;20028;-63
2023/04/20 07:45:14;;;;;;;8.63;5.78;;;;;;;9.31;50.57;101759.59;5071361;28;20039;-64
2023/04/20 07:47:39;;;;;;;7.85;5.43;;;;;;;9.31;51.57;101760.47;5081228;28;20042;-64
2023/04/20 07:50:06;;;;;;;10.05;5.78;;;;;;;9.34;51.50;101771.06;5089057;28;20065;-63
2023/04/20 07:52:32;;;;;;;9.77;5.90;;;;;;;9.42;51.10;101758.88;5092921;28;20058;-63
2023/04/20 07:54:58;;;;;;;7.90;4.88;;;;;;;9.48;51.30;101771.00;5090812;28;20157;-63
2023/04/20 07:57:23;;;;;;;8.77;5.63;;;;;;;9.48;50.87;101765.47;5082854;28;20036;-63
2023/04/20 07:59:49;;;;;;;6.03;4.90;;;;;;;9.44;50.89;101769.75;5092887;28;20469;-63
2023/04/20 08:02:14;;;;;;;7.07;5.35;;;;;;;9.37;51.19;101764.25;5091241;28;20043;-63
2023/04/20 08:04:40;;;;;;;6.15;4.75;;;;;;;9.39;51.33;101764.88;5090967;28;20024;-63
2023/04/20 08:07:05;;;;;;;7.25;4.88;;;;;;;9.43;51.87;101763.38;5074109;28;20153;-63
2023/04/20 08:09:31;;;;;;;7.75;5.25;;;;;;;9.49;51.59;101761.63;5071407;28;20105;-64
2023/04/20 08:11:56;;;;;;;7.93;5.40;;;;;;;9.55;51.50;101755.19;5071143;28;20036;-62
2023/04/20 08:14:21;;;;;;;11.60;5.20;;;;;;;9.59;51.03;101757.28;5074350;28;24288;-63
2023/04/20 08:16:47;;;;;;;7.40;5.57;;;;;;;9.58;51.55;101750.03;5085936;28;20062;-65
2023/04/20 08:19:12;;;;;;;6.60;5.00;;;;;;;9.59;51.93;101745.34;5072216;28;20024;-65
2023/04/20 08:21:40;;;;;;;8.90;5.32;;;;;;;9.59;51.46;101748.13;5072006;28;20045;-66
2023/04/20 08:24:07;;;;;;;8.32;5.25;;;;;;;9.57;51.18;101740.00;5072407;28;20048;-65
2023/04/20 08:26:32;;;;;;;9.15;5.20;;;;;;;9.57;51.72;101739.16;5090111;28;20039;-65
2023/04/20 08:29:02;;;;;;;7.53;5.57;;;;;;;9.59;52.06;101735.13;5091705;28;20020;-63
2023/04/20 08:31:27;;;;;;;8.68;5.70;;;;;;;9.65;52.04;101735.28;5092540;28;20116;-64
2023/04/20 08:33:53;;;;;;;7.15;5.00;;;;;;;9.70;51.60;101732.66;5079801;28;20119;-62
2023/04/20 08:36:18;;;;;;;7.70;5.10;;;;;;;9.76;51.80;101723.47;5091131;28;20054;-65
2023/04/20 08:38:44;;;;;;;6.57;5.18;;;;;;;9.76;51.23;101718.75;5091928;28;20112;-64
2023/04/20 08:41:13;;;;;;;7.30;4.78;;;;;;;9.82;51.63;101722.53;5085790;28;20031;-64
2023/04/20 08:43:39;;;;;;;6.82;4.95;;;;;;;9.94;52.14;101712.41;5086278;28;20103;-65
2023/04/20 08:46:04;;;;;;;7.35;5.03;;;;;;;10.11;51.94;101709.06;5076629;28;20558;-63
2023/04/20 08:48:35;;;;;;;7.93;5.00;;;;;;;10.27;50.97;101714.88;5077426;28;20103;-64
2023/04/20 08:51:02;;;;;;;6.40;4.60;;;;;;;10.36;50.98;101709.03;5078939;28;20107;-65
2023/04/20 08:53:30;;;;;;;7.18;4.72;;;;;;;10.35;51.11;101710.94;5083336;28;20048;-65
2023/04/20 08:55:56;;;;;;;7.60;4.90;;;;;;;10.34;51.01;101713.97;5087011;28;20735;-65
2023/04/20 08:58:24;;;;;;;5.43;4.80;;;;;;;10.34;50.61;101711.19;5088998;28;20035;-65
2023/04/20 09:00:49;;;;;;;6.80;4.35;;;;;;;10.35;51.15;101707.34;5074737;28;20037;-65
2023/04/20 09:03:15;;;;;;;6.30;4.97;;;;;;;10.41;50.80;101704.47;5090389;28;20430;-65
2023/04/20 09:05:42;;;;;;;8.77;4.82;;;;;;;10.47;50.61;101700.78;5070126;28;20048;-66
2023/04/20 09:08:08;;;;;;;7.15;4.82;;;;;;;10.39;50.45;101705.78;5070300;28;20036;-65
2023/04/20 09:10:42;;;;;;;10.35;5.18;;;;;;;10.32;50.95;101712.25;5074966;28;20029;-64
2023/04/20 09:13:09;;;;;;;5.88;4.72;;;;;;;10.32;51.02;101697.53;5090187;28;20024;-67
2023/04/20 09:15:34;;;;;;;7.20;4.55;;;;;;;10.27;50.95;101708.47;5075386;28;20036;-64
2023/04/20 09:18:11;;;;;;;6.78;4.72;;;;;;;10.13;50.86;101713.28;5070326;28;20093;-65
2023/04/20 09:20:36;;;;;;;6.00;4.47;;;;;;;10.07;51.07;101709.50;5069486;28;20039;-65
2023/04/20 09:23:13;;;;;;;8.10;4.40;;;;;;;10.11;51.22;101701.56;5058482;28;20033;-65
2023/04/20 09:25:39;;;;;;;5.57;4.47;;;;;;;10.12;51.36;101703.25;5057923;28;20032;-65
2023/04/20 09:28:06;;;;;;;5.13;4.07;;;;;;;10.09;50.98;101712.88;5055908;28;20504;-63
2023/04/20 09:30:38;;;;;;;5.30;4.35;;;;;;;10.12;50.90;101711.59;5048689;28;20040;-65
2023/04/20 09:33:04;;;;;;;;;;;;;;;10.27;50.62;101700.16;5068257;28;20032;-65
2023/04/20 09:35:30;;;;;;;7.60;4.43;;;;;;;10.24;50.83;101703.34;5065169;28;19920;-65
2023/04/20 09:37:55;;;;;;;5.80;4.32;;;;;;;10.18;51.08;101704.25;5057017;28;20029;-63
2023/04/20 09:40:23;;;;;;;5.80;4.60;;;;;;;10.08;51.13;101708.41;5068670;28;20035;-63
2023/04/20 09:42:51;;;;;;;5.57;4.93;;;;;;;10.03;51.31;101701.88;5053385;28;20032;-64
2023/04/20 09:45:17;;;;;;;7.38;4.93;;;;;;;10.03;51.70;101699.09;5049191;28;20380;-64
2023/04/20 09:47:43;;;;;;;6.22;4.80;;;;;;;10.04;51.68;101709.97;5050139;28;20036;-64
2023/04/20 09:50:11;;;;;;;5.65;4.45;;;;;;;10.02;51.57;101706.59;5044768;28;20029;-62
2023/04/20 09:52:37;;;;;;;6.88;4.95;;;;;;;10.01;51.80;101696.53;5048991;28;20139;-64
2023/04/20 09:55:05;;;;;;;5.93;4.70;;;;;;;10.01;51.40;101702.09;5069075;28;20051;-63
2023/04/20 09:57:31;;;;;;;5.90;4.70;;;;;;;9.98;51.48;101690.59;5069232;28;20039;-64
2023/04/20 09:59:58;;;;;;;6.65;4.18;;;;;;;10.05;51.62;101683.91;5063405;28;20020;-64
2023/04/20 10:02:24;;;;;;;4.68;4.20;;;;;;;10.10;50.79;101672.16;5065477;28;20118;-62
2023/04/20 10:04:57;;;;;;;6.47;4.40;;;;;;;10.11;50.83;101671.06;5068555;28;20059;-63
2023/04/20 10:07:27;;;;;;;5.43;4.50;;;;;;;10.28;51.17;101661.06;5070431;28;20052;-63
2023/04/20 10:10:09;;;;;;;10.27;4.60;;;;;;;10.48;50.42;101660.81;5051782;28;20028;-63
2023/04/20 10:12:52;;;;;;;7.15;4.72;;;;;;;10.54;50.17;101665.47;5068864;28;20086;-63
2023/04/20 10:15:17;;;;;;;6.47;4.68;;;;;;;10.52;50.35;101666.75;5080593;28;20105;-63
2023/04/20 10:17:43;;;;;;;5.80;4.88;;;;;;;10.42;50.35;101672.88;5089506;28;20036;-63
2023/04/20 10:20:23;;;;;;;5.65;4.93;;;;;;;10.38;50.17;101665.25;5088702;28;20115;-64
2023/04/20 10:22:51;;;;;;;8.32;4.85;;;;;;;10.29;49.81;101667.47;5089817;28;20024;-64
2023/04/20 10:25:22;;;;;;;5.50;4.40;;;;;;;10.20;49.29;101666.91;5085928;28;20051;-64
2023/04/20 10:27:56;;;;;;;6.03;4.68;;;;;;;10.14;50.13;101670.63;5071499;28;20036;-63
2023/04/20 10:30:23;;;;;;;7.43;4.80;;;;;;;10.10;51.22;101666.59;5074072;28;20383;-63
2023/04/20 10:32:48;;;;;;;5.22;4.72;;;;;;;10.14;51.69;101672.50;5070989;28;20036;-64
2023/04/20 10:35:15;;;;;;;6.13;4.60;;;;;;;10.13;51.61;101666.13;5087053;28;20040;-63
2023/04/20 10:37:50;;;;;;;5.75;5.07;;;;;;;10.15;51.39;101665.91;5075554;28;20204;-63
2023/04/20 10:40:23;;;;;;;7.53;5.25;;;;;;;10.12;51.04;101663.59;5080421;28;20029;-63
2023/04/20 10:42:48;;;;;;;5.20;4.70;;;;;;;10.16;51.24;101657.34;5083764;28;20024;-63
2023/04/20 10:45:14;;;;;;;5.38;4.88;;;;;;;10.26;51.56;101651.31;5066150;28;20387;-64
2023/04/20 10:47:39;;;;;;;8.52;5.18;;;;;;;10.39;51.49;101647.50;5068671;28;20020;-64
2023/04/20 10:50:10;;;;;;;9.18;4.93;;;;;;;10.38;52.16;101634.72;5072413;28;20028;-60
2023/04/20 10:52:38;;;;;;;6.95;4.88;;;;;;;10.46;51.17;101645.50;5074055;28;20051;-61
2023/04/20 10:55:08;;;;;;;5.43;4.93;;;;;;;10.60;50.87;101646.16;5065128;28;20036;-61
2023/04/20 10:57:34;;;;;;;6.88;5.05;;;;;;;10.68;50.40;101657.78;5065653;28;20551;-61
2023/04/20 11:00:15;;;;;;;8.63;5.28;;;;;;;10.70;49.90;101641.75;5070514;28;20506;-62
2023/04/20 11:02:48;;;;;;;6.50;5.80;;;;;;;10.59;50.04;101645.31;5072178;28;20476;-62
2023/04/20 11:05:14;;;;;;;5.70;5.20;;;;;;;10.50;50.10;101642.03;5075156;28;20485;-62
2023/04/20 11:07:58;;;;;;;6.28;5.68;;;;;;;10.51;50.52;101652.03;5072350;28;20032;-63
2023/04/20 11:10:36;;;;;;;5.82;5.32;;;;;;;10.40;50.73;101640.88;5088046;28;20016;-63
2023/04/20 11:13:02;;;;;;;5.93;5.28;;;;;;;10.37;51.12;101639.41;5077550;28;20507;-63
2023/04/20 11:15:31;;;;;;;7.68;6.13;;;;;;;10.26;51.59;101641.03;5067663;28;20048;-64
2023/04/20 11:18:06;;;;;;;6.65;5.50;;;;;;;10.23;51.59;101637.84;5077522;28;20028;-63
2023/04/20 11:20:31;;;;;;;6.38;5.70;;;;;;;10.30;52.44;101631.19;5081064;28;20031;-63
2023/04/20 11:22:58;;;;;;;6.70;5.97;;;;;;;10.39;51.51;101628.94;5071715;28;20028;-63
2023/04/20 11:25:24;;;;;;;9.68;6.07;;;;;;;10.43;51.65;101621.81;5071866;28;20043;-62